Time;durP1;ratioP1;P1;durP2;ratioP2;P2;SDS_P1;SDS_P2;PMS_P1;PMS_P2;Temp;Humidity;BMP_temperature;BMP_pressure;BME280_temperature;BME280_humidity;BME280_pressure;Samples;Min_cycle;Max_cycle;Signal;HPM_P1;HPM_P2
2022/11/24 00:02:04;;;;;;;20.63;9.40;;;;;;;;;;5077790;28;20427;-90
2022/11/24 00:04:32;;;;;;;20.00;8.77;;;;;;;;;;5080966;28;20415;-89
2022/11/24 00:07:05;;;;;;;23.00;9.23;;;;;;;;;;5086645;28;20437;-90
2022/11/24 00:09:33;;;;;;;18.42;8.35;;;;;;;;;;5109221;28;20425;-91
2022/11/24 00:12:02;;;;;;;17.92;8.65;;;;;;;;;;5090006;28;20776;-91
2022/11/24 00:14:30;;;;;;;16.77;8.63;;;;;;;;;;5084561;28;20771;-91
2022/11/24 00:16:58;;;;;;;16.30;8.60;;;;;;;;;;5078624;28;20450;-92
2022/11/24 00:19:30;;;;;;;19.98;8.70;;;;;;;;;;5077982;28;20424;-90
2022/11/24 00:21:58;;;;;;;16.87;8.23;;;;;;;;;;5071838;28;20423;-90
2022/11/24 00:24:26;;;;;;;20.13;8.52;;;;;;;;;;5072972;28;20415;-91
2022/11/24 00:26:59;;;;;;;18.52;8.60;;;;;;;;;;5071514;28;20418;-90
2022/11/24 00:29:28;;;;;;;17.27;8.43;;;;;;;;;;5087986;28;20758;-91
2022/11/24 00:32:04;;;;;;;17.90;8.23;;;;;;;;;;5060845;28;20425;-90
2022/11/24 00:34:32;;;;;;;17.80;8.35;;;;;;;;;;5075732;28;20421;-90
2022/11/24 00:37:05;;;;;;;14.38;7.75;;;;;;;;;;5077917;28;20411;-90
2022/11/24 00:39:38;;;;;;;20.58;8.70;;;;;;;;;;5071590;28;20434;-91
2022/11/24 00:42:05;;;;;;;19.98;8.73;;;;;;;;;;5064386;28;20420;-89
2022/11/24 00:44:40;;;;;;;17.48;8.35;;;;;;;;;;5081765;28;20777;-91
2022/11/24 00:47:13;;;;;;;18.38;9.27;;;;;;;;;;5083316;28;20421;-91
2022/11/24 00:49:40;;;;;;;20.58;8.90;;;;;;;;;;5103825;28;20444;-91
2022/11/24 00:52:08;;;;;;;19.55;8.50;;;;;;;;;;5070863;28;20435;-90
2022/11/24 00:54:36;;;;;;;20.58;8.65;;;;;;;;;;5068281;28;20432;-90
2022/11/24 00:57:04;;;;;;;18.30;8.60;;;;;;;;;;5065011;28;21262;-91
2022/11/24 00:59:32;;;;;;;16.05;8.30;;;;;;;;;;5055414;28;20424;-90
2022/11/24 01:02:01;;;;;;;21.27;8.60;;;;;;;;;;5068502;28;20868;-92
2022/11/24 01:04:29;;;;;;;16.80;8.90;;;;;;;;;;5074336;28;20434;-91
2022/11/24 01:07:02;;;;;;;14.70;8.10;;;;;;;;;;5093874;28;20410;-91
2022/11/24 01:09:35;;;;;;;17.20;8.23;;;;;;;;;;5076840;28;20432;-90
2022/11/24 01:12:08;;;;;;;19.23;8.43;;;;;;;;;;5075900;28;20427;-91
2022/11/24 01:14:40;;;;;;;18.67;8.50;;;;;;;;;;5093816;28;20414;-91
2022/11/24 01:17:10;;;;;;;18.65;8.90;;;;;;;;;;5074760;28;20426;-91
2022/11/24 01:19:42;;;;;;;15.50;7.57;;;;;;;;;;5088470;28;20420;-92
2022/11/24 01:22:10;;;;;;;14.73;7.70;;;;;;;;;;5073242;28;20411;-91
2022/11/24 01:24:38;;;;;;;20.70;8.18;;;;;;;;;;5075315;28;20404;-92
2022/11/24 01:27:11;;;;;;;17.23;8.63;;;;;;;;;;5072667;28;20414;-92
2022/11/24 01:29:39;;;;;;;19.75;8.02;;;;;;;;;;5057681;28;20423;-91
2022/11/24 01:32:07;;;;;;;19.23;8.38;;;;;;;;;;5081244;28;20426;-90
2022/11/24 01:34:36;;;;;;;16.83;8.43;;;;;;;;;;5080303;28;20415;-90
2022/11/24 01:37:04;;;;;;;21.27;8.82;;;;;;;;;;5099846;27;20796;-91
2022/11/24 01:39:36;;;;;;;19.15;7.50;;;;;;;;;;5057837;28;20412;-91
2022/11/24 01:42:09;;;;;;;18.33;8.18;;;;;;;;;;5055099;28;20763;-91
2022/11/24 01:44:37;;;;;;;15.30;7.88;;;;;;;;;;5077510;28;20414;-90
2022/11/24 01:47:08;;;;;;;14.50;7.70;;;;;;;;;;5067260;28;20437;-91
2022/11/24 01:49:44;;;;;;;18.15;8.13;;;;;;;;;;5073018;28;20876;-91
2022/11/24 01:52:14;;;;;;;16.55;8.45;;;;;;;;;;5060418;28;20427;-89
2022/11/24 01:54:49;;;;;;;19.13;7.80;;;;;;;;;;5060605;28;20920;-89
2022/11/24 01:57:25;;;;;;;18.63;7.35;;;;;;;;;;5053172;28;20420;-87
2022/11/24 01:59:55;;;;;;;16.85;7.55;;;;;;;;;;5064886;28;20915;-91
2022/11/24 02:02:41;;;;;;;14.85;7.57;;;;;;;;;;5087710;28;20609;-88
2022/11/24 02:05:12;;;;;;;15.15;7.90;;;;;;;;;;5082910;28;20416;-92
2022/11/24 02:07:40;;;;;;;14.50;7.57;;;;;;;;;;5099862;28;20426;-90
2022/11/24 02:10:09;;;;;;;18.67;8.00;;;;;;;;;;5086056;28;20416;-91
2022/11/24 02:12:45;;;;;;;15.38;7.75;;;;;;;;;;5083467;28;20420;-91
2022/11/24 02:15:19;;;;;;;16.95;7.63;;;;;;;;;;5081561;28;20421;-90
2022/11/24 02:17:47;;;;;;;16.58;7.68;;;;;;;;;;5091232;28;20413;-89
2022/11/24 02:20:17;;;;;;;17.58;7.80;;;;;;;;;;5057067;28;20435;-89
2022/11/24 02:22:49;;;;;;;13.48;7.38;;;;;;;;;;5072489;28;20410;-89
2022/11/24 02:25:23;;;;;;;13.60;7.30;;;;;;;;;;5087475;28;20411;-90
2022/11/24 02:27:58;;;;;;;15.90;7.38;;;;;;;;;;5053543;28;20419;-92
2022/11/24 02:30:31;;;;;;;13.85;7.13;;;;;;;;;;5071797;28;20419;-92
2022/11/24 02:33:04;;;;;;;16.27;7.70;;;;;;;;;;5059805;28;20432;-90
2022/11/24 02:35:37;;;;;;;16.23;7.80;;;;;;;;;;5062748;28;20791;-89
2022/11/24 02:38:11;;;;;;;16.80;7.30;;;;;;;;;;5066120;28;20916;-91
2022/11/24 02:40:46;;;;;;;17.02;7.57;;;;;;;;;;5091982;28;20406;-89
2022/11/24 02:43:22;;;;;;;15.05;7.68;;;;;;;;;;5092687;28;20413;-90
2022/11/24 02:45:50;;;;;;;14.33;7.37;;;;;;;;;;5070069;28;20424;-91
2022/11/24 02:48:22;;;;;;;13.27;7.43;;;;;;;;;;5078053;28;20901;-89
2022/11/24 02:50:55;;;;;;;14.85;7.45;;;;;;;;;;5078080;28;20420;-90
2022/11/24 02:53:23;;;;;;;13.13;7.07;;;;;;;;;;5070286;28;20772;-91
2022/11/24 02:55:56;;;;;;;15.55;7.32;;;;;;;;;;5078257;28;20790;-90
2022/11/24 02:58:25;;;;;;;17.33;7.40;;;;;;;;;;5105758;28;20422;-89
2022/11/24 03:00:58;;;;;;;16.33;7.53;;;;;;;;;;5069785;28;20429;-90
2022/11/24 03:03:31;;;;;;;15.65;7.60;;;;;;;;;;5071672;28;20410;-91
2022/11/24 03:06:04;;;;;;;17.77;7.93;;;;;;;;;;5070656;28;20427;-91
2022/11/24 03:08:37;;;;;;;17.00;7.88;;;;;;;;;;5051288;28;20432;-91
2022/11/24 03:11:10;;;;;;;15.52;7.78;;;;;;;;;;5083766;28;20418;-89
2022/11/24 03:13:44;;;;;;;17.42;7.85;;;;;;;;;;5084082;28;20421;-90
2022/11/24 03:16:12;;;;;;;16.60;7.68;;;;;;;;;;5084486;28;20884;-90
2022/11/24 03:18:40;;;;;;;17.05;7.78;;;;;;;;;;5067376;28;20422;-90
2022/11/24 03:21:08;;;;;;;18.90;7.93;;;;;;;;;;5078106;28;20451;-90
2022/11/24 03:23:35;;;;;;;15.40;7.40;;;;;;;;;;5079726;28;20408;-90
2022/11/24 03:26:09;;;;;;;16.80;7.72;;;;;;;;;;5093457;28;20427;-90
2022/11/24 03:28:36;;;;;;;19.25;7.40;;;;;;;;;;5074189;28;20431;-90
2022/11/24 03:31:06;;;;;;;14.38;7.80;;;;;;;;;;5073674;28;20418;-91
2022/11/24 03:33:39;;;;;;;19.48;7.55;;;;;;;;;;5058540;28;20516;-88
2022/11/24 03:36:12;;;;;;;15.10;7.68;;;;;;;;;;5101341;28;20425;-90
2022/11/24 03:38:45;;;;;;;14.57;7.63;;;;;;;;;;5088732;28;20427;-91
2022/11/24 03:41:17;;;;;;;18.20;7.90;;;;;;;;;;5071644;28;20412;-88
2022/11/24 03:43:50;;;;;;;15.15;7.93;;;;;;;;;;5061581;28;20423;-89
2022/11/24 03:46:25;;;;;;;17.88;8.00;;;;;;;;;;5071813;28;20422;-91
2022/11/24 03:48:52;;;;;;;18.83;7.77;;;;;;;;;;5059760;28;20472;-90
2022/11/24 03:51:25;;;;;;;17.27;7.57;;;;;;;;;;5054931;28;20431;-91
2022/11/24 03:53:58;;;;;;;16.53;7.20;;;;;;;;;;5081000;28;20418;-90
2022/11/24 03:56:31;;;;;;;16.60;7.55;;;;;;;;;;5072513;28;20780;-90
2022/11/24 03:59:04;;;;;;;18.60;7.85;;;;;;;;;;5089722;28;20411;-91
2022/11/24 04:01:38;;;;;;;19.45;7.07;;;;;;;;;;5068918;28;20422;-89
2022/11/24 04:04:12;;;;;;;15.85;7.40;;;;;;;;;;5102923;28;20751;-89
2022/11/24 04:06:44;;;;;;;15.30;7.40;;;;;;;;;;5057318;28;20902;-90
2022/11/24 04:09:17;;;;;;;14.57;7.20;;;;;;;;;;5065668;28;20492;-89
2022/11/24 04:14:50;;;;;;;17.10;7.50;;;;;;;;;;5025412;28;20436;-91
2022/11/24 04:17:24;;;;;;;17.80;7.40;;;;;;;;;;5041704;28;20427;-91
2022/11/24 04:19:52;;;;;;;16.17;7.33;;;;;;;;;;5035631;28;20489;-90
2022/11/24 04:22:25;;;;;;;16.43;7.53;;;;;;;;;;5070021;28;20428;-90
2022/11/24 04:24:53;;;;;;;19.00;7.93;;;;;;;;;;5090789;28;20428;-91
2022/11/24 04:27:20;;;;;;;17.73;7.40;;;;;;;;;;5074782;28;20926;-90
2022/11/24 04:29:53;;;;;;;15.65;7.38;;;;;;;;;;5077255;28;20435;-90
2022/11/24 04:32:28;;;;;;;14.65;6.90;;;;;;;;;;5098597;28;20427;-90
2022/11/24 04:35:00;;;;;;;14.30;7.13;;;;;;;;;;5075265;28;20496;-89
2022/11/24 04:37:34;;;;;;;19.38;8.30;;;;;;;;;;5066233;28;20419;-90
2022/11/24 04:40:08;;;;;;;17.65;8.50;;;;;;;;;;5070361;28;20808;-89
2022/11/24 04:42:41;;;;;;;18.95;8.98;;;;;;;;;;5057368;28;20795;-90
2022/11/24 04:45:13;;;;;;;17.75;9.27;;;;;;;;;;5096360;28;20415;-90
2022/11/24 04:47:43;;;;;;;19.17;9.30;;;;;;;;;;5087355;28;20885;-90
2022/11/24 04:50:11;;;;;;;17.92;8.57;;;;;;;;;;5074754;28;20760;-90
2022/11/24 04:52:38;;;;;;;17.15;8.50;;;;;;;;;;5063271;28;20418;-90
2022/11/24 04:55:11;;;;;;;17.55;8.48;;;;;;;;;;5098233;28;20435;-91
2022/11/24 04:57:44;;;;;;;17.80;8.00;;;;;;;;;;5070128;28;20419;-90
2022/11/24 05:00:18;;;;;;;21.25;8.60;;;;;;;;;;5086530;28;20413;-90
2022/11/24 05:02:47;;;;;;;22.10;8.18;;;;;;;;;;5081489;28;20402;-90
2022/11/24 05:05:20;;;;;;;22.55;8.73;;;;;;;;;;5100608;28;20409;-92
2022/11/24 05:07:48;;;;;;;19.77;9.73;;;;;;;;;;5084872;28;20437;-91
2022/11/24 05:13:09;;;;;;;20.50;11.67;;;;;;;;;;5076460;28;20426;-89
2022/11/24 05:15:36;;;;;;;17.58;9.68;;;;;;;;;;5070457;28;20423;-89
2022/11/24 05:18:12;;;;;;;22.80;8.57;;;;;;;;;;5071483;28;20423;-91
2022/11/24 05:20:40;;;;;;;19.30;8.65;;;;;;;;;;5086283;28;20906;-91
2022/11/24 05:23:12;;;;;;;16.90;8.95;;;;;;;;;;5087236;28;20419;-91
2022/11/24 05:25:45;;;;;;;16.63;7.70;;;;;;;;;;5093669;28;20413;-90
2022/11/24 05:28:18;;;;;;;19.27;8.10;;;;;;;;;;5065786;28;20895;-90
2022/11/24 05:30:46;;;;;;;17.20;8.02;;;;;;;;;;5080905;28;20417;-89
2022/11/24 05:33:21;;;;;;;16.10;7.88;;;;;;;;;;5081816;28;20423;-90
2022/11/24 05:35:49;;;;;;;19.05;7.95;;;;;;;;;;5065831;28;20416;-91
2022/11/24 05:38:22;;;;;;;19.98;8.52;;;;;;;;;;5078939;28;20418;-89
2022/11/24 05:40:55;;;;;;;16.35;8.00;;;;;;;;;;5090075;28;20426;-91
2022/11/24 05:43:23;;;;;;;18.73;8.70;;;;;;;;;;5067606;28;20418;-89
2022/11/24 05:45:51;;;;;;;29.77;16.23;;;;;;;;;;5059262;28;20411;-91
2022/11/24 05:48:18;;;;;;;25.58;13.07;;;;;;;;;;5066508;28;20430;-91
2022/11/24 05:50:54;;;;;;;25.07;11.67;;;;;;;;;;5087017;28;20498;-91
2022/11/24 05:53:21;;;;;;;19.33;9.80;;;;;;;;;;5091360;28;20410;-91
2022/11/24 05:55:49;;;;;;;20.63;9.00;;;;;;;;;;5089091;28;20787;-90
2022/11/24 05:58:17;;;;;;;19.40;9.23;;;;;;;;;;5056799;28;20427;-90
2022/11/24 06:00:50;;;;;;;16.08;8.60;;;;;;;;;;5091585;28;20424;-91
2022/11/24 06:03:18;;;;;;;18.42;8.20;;;;;;;;;;5095021;28;20431;-89
2022/11/24 06:05:50;;;;;;;19.00;8.63;;;;;;;;;;5087824;28;20418;-91
2022/11/24 06:08:25;;;;;;;18.02;8.55;;;;;;;;;;5086952;28;20418;-90
2022/11/24 06:11:15;;;;;;;19.02;8.35;;;;;;;;;;5076326;28;20422;-91
2022/11/24 06:13:48;;;;;;;18.63;8.02;;;;;;;;;;5105185;28;20417;-91
2022/11/24 06:16:21;;;;;;;17.67;7.53;;;;;;;;;;5074097;28;20418;-91
2022/11/24 06:18:54;;;;;;;17.83;7.90;;;;;;;;;;5077406;28;20426;-91
2022/11/24 06:21:27;;;;;;;18.38;8.20;;;;;;;;;;5091825;28;20422;-89
2022/11/24 06:24:01;;;;;;;14.88;8.02;;;;;;;;;;5094374;28;20411;-90
2022/11/24 06:26:34;;;;;;;19.00;9.43;;;;;;;;;;5108041;27;20412;-90
2022/11/24 06:29:06;;;;;;;22.65;10.68;;;;;;;;;;5074247;28;20917;-91
2022/11/24 06:31:34;;;;;;;24.00;11.32;;;;;;;;;;5078227;28;20420;-90
2022/11/24 06:34:09;;;;;;;18.17;9.57;;;;;;;;;;5067081;28;20433;-90
2022/11/24 06:36:42;;;;;;;20.45;8.75;;;;;;;;;;5085467;28;20424;-89
2022/11/24 06:39:16;;;;;;;18.40;8.30;;;;;;;;;;5064075;28;20442;-91
2022/11/24 06:41:49;;;;;;;19.10;8.60;;;;;;;;;;5109379;27;20923;-91
2022/11/24 06:44:22;;;;;;;20.05;8.88;;;;;;;;;;5070091;28;20420;-89
2022/11/24 06:46:50;;;;;;;19.77;9.02;;;;;;;;;;5064049;28;20413;-91
2022/11/24 06:49:18;;;;;;;19.02;9.15;;;;;;;;;;5072979;28;20429;-90
2022/11/24 06:51:45;;;;;;;18.42;8.27;;;;;;;;;;5065023;28;20421;-90
2022/11/24 06:54:21;;;;;;;18.70;8.20;;;;;;;;;;5066851;28;20781;-92
2022/11/24 06:56:48;;;;;;;23.10;8.63;;;;;;;;;;5083582;28;20416;-89
2022/11/24 06:59:21;;;;;;;19.80;8.63;;;;;;;;;;5069989;28;20427;-91
2022/11/24 07:01:54;;;;;;;21.05;8.18;;;;;;;;;;5087467;28;20782;-91
2022/11/24 07:04:22;;;;;;;18.75;8.70;;;;;;;;;;5100177;28;20422;-89
2022/11/24 07:06:54;;;;;;;21.08;8.95;;;;;;;;;;5101052;28;20422;-91
2022/11/24 07:09:29;;;;;;;16.55;8.60;;;;;;;;;;5094335;28;20416;-89
2022/11/24 07:11:56;;;;;;;37.30;13.30;;;;;;;;;;5070064;28;20434;-91
2022/11/24 07:14:29;;;;;;;77.00;21.65;;;;;;;;;;5103731;28;20432;-91
2022/11/24 07:17:03;;;;;;;78.03;22.50;;;;;;;;;;5070975;28;20430;-91
2022/11/24 07:19:31;;;;;;;50.65;17.13;;;;;;;;;;5092310;28;20945;-90
2022/11/24 07:22:04;;;;;;;53.08;16.98;;;;;;;;;;5066277;28;20430;-87
2022/11/24 07:24:38;;;;;;;47.50;14.55;;;;;;;;;;5061348;28;20782;-90
2022/11/24 07:27:11;;;;;;;18.33;6.80;;;;;;;;;;5070938;28;20055;-89
2022/11/24 07:29:38;;;;;;;;;;;;;;;;;;5108919;28;20052;-89
2022/11/24 07:32:11;;;;;;;18.25;5.90;;;;;;;;;;5065853;28;19920;-88
2022/11/24 07:34:38;;;;;;;;;;;;;;;;;;5075699;28;20048;-87
2022/11/24 07:37:06;;;;;;;;;;;;;;;;;;5070590;28;20379;-90
2022/11/24 07:39:34;;;;;;;;;;;;;;;;;;5098301;28;19920;-89
2022/11/24 07:42:09;;;;;;;13.07;4.28;;;;;;;;;;5080701;28;19924;-91
2022/11/24 07:44:42;;;;;;;11.27;4.65;;;;;;;;;;5067998;28;20048;-91
2022/11/24 07:47:09;;;;;;;;;;;;;;;;;;5084853;28;20044;-85
2022/11/24 07:49:37;;;;;;;8.15;3.85;;;;;;;;;;5081142;28;19959;-89
2022/11/24 07:52:05;;;;;;;;;;;;;;;;;;5058875;28;20629;-88
2022/11/24 07:54:34;;;;;;;11.85;4.38;;;;;;;;;;5085055;28;19971;-85
2022/11/24 07:57:08;;;;;;;10.95;4.25;;;;;;;;;;5078929;28;20516;-86
2022/11/24 07:59:36;;;;;;;14.48;5.07;;;;;;;;;;5054544;28;20059;-87
2022/11/24 08:02:10;;;;;;;12.40;5.22;;;;;;;;;;5056250;28;20056;-87
2022/11/24 08:04:38;;;;;;;10.15;5.03;;;;;;;;;;5058085;28;20060;-87
2022/11/24 08:07:06;;;;;;;;;;;;;;;;;;5055775;28;20212;-86
2022/11/24 08:09:34;;;;;;;;;;;;;;;;;;5059039;28;19928;-86
2022/11/24 08:12:01;;;;;;;;;;;;;;;;;;5061834;28;20684;-85
2022/11/24 08:14:30;;;;;;;7.22;3.72;;;;;;;;;;5073275;28;19935;-90
2022/11/24 08:16:58;;;;;;;10.73;4.50;;;;;;;;;;5055521;28;20519;-87
2022/11/24 08:19:26;;;;;;;;;;;;;;;;;;5064860;28;20060;-90
2022/11/24 08:21:53;;;;;;;;;;;;;;;;;;5076665;28;19934;-87
2022/11/24 08:24:21;;;;;;;;;;;;;;;;;;5091596;28;19939;-89
2022/11/24 08:26:49;;;;;;;;;;;;;;;;;;5094753;28;19935;-85
2022/11/24 08:29:16;;;;;;;;;;;;;;;;;;5061583;28;19928;-90
2022/11/24 08:31:44;;;;;;;;;;;;;;;;;;5075421;28;20281;-90
2022/11/24 08:34:11;;;;;;;;;;;;;;;;;;5057173;28;19920;-89
2022/11/24 08:36:45;;;;;;;7.47;3.03;;;;;;;;;;5085413;28;20699;-88
2022/11/24 08:39:13;;;;;;;5.32;3.22;;;;;;;;;;5056345;28;20067;-88
2022/11/24 08:41:41;;;;;;;;;;;;;;;;;;5068880;28;20404;-90
2022/11/24 08:44:17;;;;;;;8.05;3.92;;;;;;;;;;5074952;28;20402;-88
2022/11/24 08:46:49;;;;;;;7.40;3.95;;;;;;;;;;5049440;28;20052;-89
2022/11/24 08:49:22;;;;;;;8.43;3.67;;;;;;;;;;5067390;28;20531;-86
2022/11/24 08:51:58;;;;;;;9.95;4.07;;;;;;;;;;5078980;28;20056;-87
2022/11/24 08:54:31;;;;;;;10.48;3.92;;;;;;;;;;5073793;28;20052;-86
2022/11/24 08:57:03;;;;;;;7.90;4.05;;;;;;;;;;5042147;28;20056;-86
2022/11/24 08:59:36;;;;;;;12.50;4.45;;;;;;;;;;5059381;28;20075;-85
2022/11/24 09:02:04;;;;;;;7.32;4.57;;;;;;;;;;5053282;28;20063;-86
2022/11/24 09:04:37;;;;;;;10.30;4.78;;;;;;;;;;5054185;28;20547;-87
2022/11/24 09:07:11;;;;;;;8.23;4.13;;;;;;;;;;5062926;28;20051;-87
2022/11/24 09:09:39;;;;;;;10.10;4.47;;;;;;;;;;5065229;28;20067;-87
2022/11/24 09:12:07;;;;;;;;;;;;;;;;;;5075791;28;20056;-87
2022/11/24 09:14:34;;;;;;;;;;;;;;;;;;5087093;28;19927;-87
2022/11/24 09:17:02;;;;;;;5.95;3.58;;;;;;;;;;5089741;28;19920;-88
2022/11/24 09:19:35;;;;;;;6.10;3.45;;;;;;;;;;5075122;28;20067;-87
2022/11/24 09:22:02;;;;;;;;;;;;;;;;;;5052125;28;20067;-88
2022/11/24 09:24:36;;;;;;;7.55;3.15;;;;;;;;;;5054777;28;20015;-90
2022/11/24 09:27:04;;;;;;;5.55;3.20;;;;;;;;;;5089253;28;20051;-88
2022/11/24 09:29:32;;;;;;;;;;;;;;;;;;5059151;28;20048;-90
2022/11/24 09:31:59;;;;;;;;;;;;;;;;;;5054073;28;19950;-89
2022/11/24 09:34:27;;;;;;;;;;;;;;;;;;5056016;28;19928;-91
2022/11/24 09:37:01;;;;;;;4.32;2.65;;;;;;;;;;5057564;28;21585;-90
2022/11/24 09:39:33;;;;;;;6.22;2.90;;;;;;;;;;5058035;28;20064;-88
2022/11/24 09:42:01;;;;;;;;;;;;;;;;;;5077614;28;20040;-90
2022/11/24 09:44:55;;;;;;;9.10;3.35;;;;;;;;;;5067967;28;19928;-89
2022/11/24 09:47:33;;;;;;;9.70;3.25;;;;;;;;;;5047956;28;20048;-88
2022/11/24 09:50:03;;;;;;;7.68;3.75;;;;;;;;;;5055671;28;20078;-90
2022/11/24 09:52:40;;;;;;;6.97;3.20;;;;;;;;;;5066883;28;21456;-88
2022/11/24 09:55:17;;;;;;;5.03;3.30;;;;;;;;;;5070855;28;20060;-89
2022/11/24 09:57:48;;;;;;;7.60;3.15;;;;;;;;;;5052614;28;20060;-88
2022/11/24 10:00:21;;;;;;;5.82;3.10;;;;;;;;;;5070732;28;20047;-89
2022/11/24 10:02:50;;;;;;;6.30;3.15;;;;;;;;;;5050641;28;20049;-87
2022/11/24 10:05:19;;;;;;;6.72;3.22;;;;;;;;;;5052140;28;20056;-87
2022/11/24 10:07:52;;;;;;;8.05;4.13;;;;;;;;;;5054717;28;20059;-89
2022/11/24 10:10:23;;;;;;;7.10;3.35;;;;;;;;;;5052910;28;20060;-87
2022/11/24 10:12:59;;;;;;;8.40;3.47;;;;;;;;;;5083009;28;20508;-87
2022/11/24 10:15:37;;;;;;;6.95;3.20;;;;;;;;;;5051659;28;20052;-89
2022/11/24 10:18:23;;;;;;;7.18;3.35;;;;;;;;;;5052889;28;20254;-88
2022/11/24 10:20:55;;;;;;;4.28;2.50;;;;;;;;;;5054008;28;21402;-87
2022/11/24 10:23:40;;;;;;;5.72;3.47;;;;;;;;;;5056909;28;20051;-86
2022/11/24 10:26:16;;;;;;;4.70;2.92;;;;;;;;;;5048880;28;20063;-88
2022/11/24 10:28:47;;;;;;;5.78;2.80;;;;;;;;;;5056094;28;20235;-88
2022/11/24 10:31:22;;;;;;;7.15;2.92;;;;;;;;;;5085766;28;20055;-87
2022/11/24 10:33:50;;;;;;;6.07;3.03;;;;;;;;;;5083483;28;20052;-83
2022/11/24 10:36:23;;;;;;;5.68;2.50;;;;;;;;;;5062351;28;20071;-82
2022/11/24 10:38:53;;;;;;;5.97;2.88;;;;;;;;;;5046943;28;20067;-84
2022/11/24 10:41:30;;;;;;;5.50;2.97;;;;;;;;;;5056028;28;20052;-86
2022/11/24 10:43:58;;;;;;;5.35;3.05;;;;;;;;;;5050433;28;20052;-86
2022/11/24 10:46:31;;;;;;;5.63;2.83;;;;;;;;;;5063962;28;20067;-87
2022/11/24 10:49:02;;;;;;;6.35;2.85;;;;;;;;;;5044086;28;20420;-90
2022/11/24 10:51:38;;;;;;;7.63;3.05;;;;;;;;;;5050937;28;21584;-87
2022/11/24 10:54:10;;;;;;;6.43;3.35;;;;;;;;;;5064440;28;20504;-87
2022/11/24 10:56:39;;;;;;;5.53;2.50;;;;;;;;;;5052125;28;20143;-84
2022/11/24 10:59:33;;;;;;;8.20;3.03;;;;;;;;;;5055313;28;20079;-89
2022/11/24 11:02:25;;;;;;;6.60;3.15;;;;;;;;;;5047285;28;20056;-86
2022/11/24 11:04:58;;;;;;;5.90;3.00;;;;;;;;;;5061529;28;20055;-89
2022/11/24 11:07:28;;;;;;;8.02;3.25;;;;;;;;;;5077556;28;20056;-81
2022/11/24 11:10:17;;;;;;;6.07;3.10;;;;;;;;;;5046338;28;20059;-89
2022/11/24 11:12:45;;;;;;;9.18;3.65;;;;;;;;;;5055538;28;20074;-83
2022/11/24 11:15:22;;;;;;;5.28;2.97;;;;;;;;;;5087832;28;20067;-85
2022/11/24 11:17:51;;;;;;;4.82;2.47;;;;;;;;;;5058313;28;20043;-86
2022/11/24 11:20:27;;;;;;;5.07;3.08;;;;;;;;;;5047548;28;20055;-86
2022/11/24 11:22:57;;;;;;;6.25;3.20;;;;;;;;;;5050205;28;20060;-87
2022/11/24 11:25:29;;;;;;;6.38;3.30;;;;;;;;;;5073367;28;21384;-87
2022/11/24 11:28:10;;;;;;;5.75;3.17;;;;;;;;;;5054687;28;20061;-84
2022/11/24 11:30:38;;;;;;;6.45;3.30;;;;;;;;;;5055265;28;20059;-87
2022/11/24 11:33:20;;;;;;;6.15;2.92;;;;;;;;;;5053454;28;20067;-87
2022/11/24 11:35:48;;;;;;;6.45;3.28;;;;;;;;;;5077490;28;20424;-87
2022/11/24 11:38:17;;;;;;;8.43;3.20;;;;;;;;;;5087182;28;20063;-87
2022/11/24 11:40:51;;;;;;;4.63;2.75;;;;;;;;;;5053701;28;20068;-87
2022/11/24 11:43:26;;;;;;;6.45;3.08;;;;;;;;;;5052597;28;20059;-87
2022/11/24 11:46:00;;;;;;;5.22;3.13;;;;;;;;;;5059689;28;20055;-87
2022/11/24 11:48:30;;;;;;;6.13;3.20;;;;;;;;;;5057610;28;20351;-87
2022/11/24 11:51:00;;;;;;;7.63;3.38;;;;;;;;;;5057844;28;20060;-87
2022/11/24 11:53:33;;;;;;;8.15;4.60;;;;;;;;;;5056912;28;20071;-87
2022/11/24 11:56:10;;;;;;;5.57;3.70;;;;;;;;;;5070371;28;20055;-87
2022/11/24 11:58:47;;;;;;;8.18;2.72;;;;;;;;;;5058010;28;20060;-88
2022/11/24 12:01:31;;;;;;;7.95;3.75;;;;;;;;;;5057978;28;20060;-88
2022/11/24 12:04:07;;;;;;;6.75;3.10;;;;;;;;;;5065550;28;20067;-88
2022/11/24 12:06:44;;;;;;;5.75;2.95;;;;;;;;;;5045678;28;20060;-88
2022/11/24 12:09:12;;;;;;;;;;;;;;;;;;5054386;28;20063;-88
2022/11/24 12:11:49;;;;;;;4.88;2.63;;;;;;;;;;5054217;28;19931;-87
2022/11/24 12:14:21;;;;;;;5.20;2.90;;;;;;;;;;5045031;28;20057;-87
2022/11/24 12:16:56;;;;;;;5.78;2.97;;;;;;;;;;5070910;28;20048;-85
2022/11/24 12:19:44;;;;;;;6.53;3.03;;;;;;;;;;5048833;28;20052;-86
2022/11/24 12:22:16;;;;;;;9.98;3.35;;;;;;;;;;5054223;28;20063;-85
2022/11/24 12:24:55;;;;;;;5.50;3.08;;;;;;;;;;5057733;28;20064;-83
2022/11/24 12:27:28;;;;;;;6.70;3.10;;;;;;;;;;5058135;28;20829;-85
2022/11/24 12:30:04;;;;;;;4.63;2.65;;;;;;;;;;5061350;28;20052;-86
2022/11/24 12:32:48;;;;;;;5.93;2.90;;;;;;;;;;5052768;28;20056;-86
2022/11/24 12:35:22;;;;;;;5.13;2.67;;;;;;;;;;5054060;28;20060;-85
2022/11/24 12:37:58;;;;;;;6.25;2.97;;;;;;;;;;5065501;28;20040;-84
2022/11/24 12:40:36;;;;;;;4.82;2.72;;;;;;;;;;5049429;28;20416;-84
2022/11/24 12:43:11;;;;;;;6.22;2.97;;;;;;;;;;5054854;28;20055;-84
2022/11/24 12:45:49;;;;;;;4.40;2.60;;;;;;;;;;5072096;28;20055;-84
2022/11/24 12:48:28;;;;;;;7.40;3.08;;;;;;;;;;5053365;28;20512;-84
2022/11/24 12:51:03;;;;;;;8.15;3.20;;;;;;;;;;5066994;28;20095;-82
2022/11/24 12:53:37;;;;;;;7.05;2.75;;;;;;;;;;5058839;28;20051;-84
2022/11/24 12:56:06;;;;;;;6.22;2.90;;;;;;;;;;5082512;28;20059;-84
2022/11/24 12:58:40;;;;;;;6.65;2.90;;;;;;;;;;5051325;28;20055;-84
2022/11/24 13:01:12;;;;;;;4.22;2.63;;;;;;;;;;5075939;28;20071;-84
2022/11/24 13:03:49;;;;;;;9.15;3.25;;;;;;;;;;5069445;28;20044;-84
2022/11/24 13:06:26;;;;;;;7.80;3.22;;;;;;;;;;5060991;28;20044;-83
2022/11/24 13:08:53;;;;;;;7.20;3.40;;;;;;;;;;5055567;28;20047;-84
2022/11/24 13:11:25;;;;;;;5.93;3.10;;;;;;;;;;5055993;28;21316;-84
2022/11/24 13:13:59;;;;;;;5.95;2.88;;;;;;;;;;5080749;28;20071;-83
2022/11/24 13:16:27;;;;;;;5.03;2.40;;;;;;;;;;5055071;28;20060;-83
2022/11/24 13:18:56;;;;;;;6.20;2.97;;;;;;;;;;5061994;28;21495;-84
2022/11/24 13:21:31;;;;;;;7.35;3.25;;;;;;;;;;5046310;28;20056;-83
2022/11/24 13:24:05;;;;;;;6.15;2.78;;;;;;;;;;5045797;28;20056;-84
2022/11/24 13:26:44;;;;;;;4.30;2.83;;;;;;;;;;5074256;28;20070;-83
2022/11/24 13:29:26;;;;;;;6.53;3.00;;;;;;;;;;5058031;28;20060;-85
2022/11/24 13:32:14;;;;;;;8.57;3.28;;;;;;;;;;5055607;28;20053;-85
2022/11/24 13:35:02;;;;;;;5.97;2.95;;;;;;;;;;5061999;28;20059;-88
2022/11/24 13:37:45;;;;;;;5.32;2.80;;;;;;;;;;5086408;28;20059;-87
2022/11/24 13:40:28;;;;;;;6.93;2.70;;;;;;;;;;5068794;28;20044;-88
2022/11/24 13:43:20;;;;;;;6.20;2.67;;;;;;;;;;5058918;28;20463;-85
2022/11/24 13:45:50;;;;;;;5.90;2.78;;;;;;;;;;5051328;28;20055;-87
2022/11/24 13:48:36;;;;;;;5.05;2.58;;;;;;;;;;5057914;28;20056;-85
2022/11/24 13:51:25;;;;;;;6.27;2.63;;;;;;;;;;5063273;28;20056;-85
2022/11/24 13:54:00;;;;;;;7.57;3.40;;;;;;;;;;5053323;28;20310;-85
2022/11/24 13:56:33;;;;;;;4.97;2.78;;;;;;;;;;5062729;28;20060;-86
2022/11/24 13:59:15;;;;;;;7.93;3.00;;;;;;;;;;5051283;28;21420;-85
2022/11/24 14:01:56;;;;;;;6.95;2.78;;;;;;;;;;5051889;28;20091;-85
2022/11/24 14:04:24;;;;;;;8.13;3.22;;;;;;;;;;5066430;28;20055;-87
2022/11/24 14:06:58;;;;;;;8.77;3.10;;;;;;;;;;5055437;28;20060;-84
2022/11/24 14:09:35;;;;;;;5.78;2.50;;;;;;;;;;5060976;28;20059;-85
2022/11/24 14:12:06;;;;;;;5.80;3.05;;;;;;;;;;5054339;28;20059;-84
2022/11/24 14:14:34;;;;;;;6.07;2.70;;;;;;;;;;5066903;28;20782;-84
2022/11/24 14:17:12;;;;;;;7.82;2.88;;;;;;;;;;5067323;28;20062;-85
2022/11/24 14:19:40;;;;;;;4.22;2.55;;;;;;;;;;5073754;28;20076;-85
2022/11/24 14:22:12;;;;;;;7.35;3.05;;;;;;;;;;5070060;28;20056;-85
2022/11/24 14:24:43;;;;;;;7.05;3.05;;;;;;;;;;5058547;28;20056;-85
2022/11/24 14:27:14;;;;;;;10.85;3.05;;;;;;;;;;5088823;28;20870;-85
2022/11/24 14:29:54;;;;;;;5.10;2.58;;;;;;;;;;5043046;28;20056;-85
2022/11/24 14:32:22;;;;;;;6.15;2.78;;;;;;;;;;5093485;28;20055;-83
2022/11/24 14:34:52;;;;;;;5.28;2.47;;;;;;;;;;5072862;28;20044;-85
2022/11/24 14:37:20;;;;;;;4.47;2.67;;;;;;;;;;5053216;28;20071;-86
2022/11/24 14:39:54;;;;;;;3.92;2.53;;;;;;;;;;5053245;28;20052;-86
2022/11/24 14:42:27;;;;;;;5.88;2.22;;;;;;;;;;5090849;28;20051;-88
2022/11/24 14:44:57;;;;;;;5.85;2.70;;;;;;;;;;5056332;28;20617;-84
2022/11/24 14:47:31;;;;;;;7.70;2.72;;;;;;;;;;5046376;28;20393;-85
2022/11/24 14:50:09;;;;;;;4.80;2.45;;;;;;;;;;5091824;28;20783;-87
2022/11/24 14:52:42;;;;;;;5.15;2.35;;;;;;;;;;5061242;28;20149;-86
2022/11/24 14:55:27;;;;;;;5.22;2.60;;;;;;;;;;5049999;28;20056;-86
2022/11/24 14:57:55;;;;;;;5.75;2.55;;;;;;;;;;5050901;28;20062;-86
2022/11/24 15:00:22;;;;;;;;;;;;;;;;;;5055299;28;20059;-86
2022/11/24 15:02:52;;;;;;;4.68;2.45;;;;;;;;;;5055463;28;19928;-85
2022/11/24 15:05:21;;;;;;;9.10;3.20;;;;;;;;;;5055291;28;20063;-86
2022/11/24 15:08:00;;;;;;;4.68;2.53;;;;;;;;;;5069336;28;20485;-86
2022/11/24 15:10:36;;;;;;;4.95;2.50;;;;;;;;;;5090535;28;20052;-86
2022/11/24 15:13:06;;;;;;;5.03;2.72;;;;;;;;;;5050635;28;20044;-86
2022/11/24 15:15:35;;;;;;;5.22;2.80;;;;;;;;;;5050559;28;20060;-86
2022/11/24 15:18:23;;;;;;;3.83;2.22;;;;;;;;;;5049664;28;20056;-87
2022/11/24 15:20:56;;;;;;;5.45;2.45;;;;;;;;;;5051201;28;20048;-85